Stellar, Texas
Current Conditions -  °F | °C
As of 4:35 AM on Monday 20 Oct 2014 (Local Time) from K3T5 Reporting Station
Clear Clear  
Wind Chill: 17°   Ceiling: Unl
Heat Index: 17°   Visibility: 7mi
Dew Point: 17°   Wind: 0mph
Humidity: 98%   Direction: NA
Pressure: 29.99"   Gusts: NA
Location:  29.7805°N, 97.1131°W
Report Text: K3T5 200935Z AUTO 00000KT 7SM CLR 17/17 A2999 RMK AO2 T01720169
Loading
Personal Weather Stations






























Interactive Weather Map
Tropical Storm Tracking
New forecast layout! Learn more

10-Day Weather Forecast

Advertisements
Track Severe Weather on mobile